createdAt,value
2022-12-11T00:05:00.497Z,-0.50
2022-12-11T00:10:04.079Z,-0.50
2022-12-11T00:15:10.394Z,-0.60
2022-12-11T00:20:14.848Z,-0.60
2022-12-11T00:25:18.320Z,-0.20
2022-12-11T00:30:23.095Z,-0.60
2022-12-11T00:35:26.877Z,-0.60
2022-12-11T00:40:30.161Z,0.30
2022-12-11T00:45:37.510Z,-0.50
2022-12-11T00:50:41.614Z,-0.40
2022-12-11T00:55:45.105Z,-0.40
2022-12-11T01:00:50.099Z,-0.40
2022-12-11T01:05:54.223Z,-0.40
2022-12-11T01:11:04.062Z,-0.40
2022-12-11T01:16:10.727Z,-0.50
2022-12-11T01:21:15.344Z,-0.50
2022-12-11T01:26:19.217Z,-0.50
2022-12-11T01:31:23.969Z,-0.50
2022-12-11T01:36:27.254Z,-0.50
2022-12-11T01:41:30.592Z,-0.50
2022-12-11T01:46:37.184Z,-0.40
2022-12-11T01:51:47.201Z,0.60
2022-12-11T01:56:52.657Z,-0.40
2022-12-11T02:02:03.781Z,-0.40
2022-12-11T02:07:07.448Z,-0.40
2022-12-11T02:12:19.007Z,-0.40
2022-12-11T02:17:30.868Z,-0.50
2022-12-11T02:23:00.085Z,-0.50
2022-12-11T02:28:19.126Z,-0.50
2022-12-11T02:33:28.418Z,-0.50
2022-12-11T02:38:36.245Z,-0.60
2022-12-11T02:43:41.585Z,-0.60
2022-12-11T02:48:47.170Z,-0.70
2022-12-11T02:53:55.714Z,-0.80
2022-12-11T02:59:04.593Z,-1.00
2022-12-11T03:04:07.997Z,-1.10
2022-12-11T03:09:11.583Z,-1.20
2022-12-11T03:14:16.364Z,-1.00
2022-12-11T03:19:27.673Z,-1.40
2022-12-11T03:24:35.833Z,-1.50
2022-12-11T03:29:48.019Z,-1.60
2022-12-11T03:34:58.414Z,-1.70
2022-12-11T03:40:06.486Z,-1.80
2022-12-11T03:45:14.290Z,-2.00
2022-12-11T03:50:20.885Z,-2.00
2022-12-11T03:55:25.170Z,-2.00
2022-12-11T04:00:30.859Z,-2.00
2022-12-11T04:05:34.206Z,-2.00
2022-12-11T04:10:37.579Z,-2.00
2022-12-11T04:15:42.520Z,-2.00
2022-12-11T04:21:03.288Z,-2.00
2022-12-11T04:26:08.340Z,-2.10
2022-12-11T04:31:14.697Z,-2.10
2022-12-11T04:36:18.476Z,-2.10
2022-12-11T04:41:21.798Z,-2.00
2022-12-11T04:46:27.032Z,-2.10
2022-12-11T04:51:30.505Z,-2.00
2022-12-11T04:56:33.822Z,-2.00
2022-12-11T05:11:45.848Z,-2.00
2022-12-11T05:16:50.611Z,-2.20
2022-12-11T05:21:54.094Z,-2.30
2022-12-11T05:26:57.439Z,-2.30
2022-12-11T05:32:02.126Z,-2.40
2022-12-11T05:37:05.539Z,-2.40
2022-12-11T05:42:08.906Z,-2.40
2022-12-11T05:47:13.651Z,-2.50
2022-12-11T05:52:17.280Z,-2.50
2022-12-11T05:57:20.605Z,-1.90
2022-12-11T06:02:25.523Z,-2.60
2022-12-11T06:07:28.947Z,-2.60
2022-12-11T06:12:32.746Z,-2.60
2022-12-11T06:17:37.622Z,-2.50
2022-12-11T06:22:40.917Z,-2.50
2022-12-11T06:27:44.345Z,-2.60
2022-12-11T06:32:49.891Z,-2.50
2022-12-11T06:37:53.286Z,-2.50
2022-12-11T06:42:56.594Z,-2.60
2022-12-11T06:48:01.363Z,-1.90
2022-12-11T06:53:04.861Z,-2.40
2022-12-11T06:58:08.441Z,-2.30
2022-12-11T07:03:13.820Z,-2.20
2022-12-11T07:08:17.381Z,-2.20
2022-12-11T07:13:20.769Z,-2.00
2022-12-11T07:18:25.555Z,-2.20
2022-12-11T07:23:29.821Z,-2.20
2022-12-11T07:28:33.237Z,-2.30
2022-12-11T07:33:38.385Z,-2.40
2022-12-11T07:38:42.315Z,-2.40
2022-12-11T07:43:46.263Z,-2.40
2022-12-11T07:48:51.297Z,-2.20
2022-12-11T07:53:56.294Z,-2.00
2022-12-11T07:59:01.057Z,-2.00
2022-12-11T08:04:07.316Z,-2.00
2022-12-11T08:09:20.700Z,-2.00
2022-12-11T08:14:24.753Z,-2.00
2022-12-11T08:19:29.682Z,-1.90
2022-12-11T08:24:33.136Z,-1.80
2022-12-11T08:29:38.930Z,-1.60
2022-12-11T08:34:43.770Z,-1.50
2022-12-11T08:39:48.147Z,-1.40
2022-12-11T08:44:51.865Z,-1.40
2022-12-11T08:49:58.206Z,-1.30
2022-12-11T08:55:01.604Z,-0.90
2022-12-11T09:00:05.851Z,-1.00
2022-12-11T09:05:11.422Z,-0.90
2022-12-11T09:10:15.100Z,-0.80
2022-12-11T09:15:18.714Z,-0.80
2022-12-11T09:20:23.584Z,-0.50
2022-12-11T09:25:27.076Z,-0.50
2022-12-11T09:30:31.042Z,-0.30
2022-12-11T09:35:36.158Z,0.00
2022-12-11T09:40:43.392Z,-0.50
2022-12-11T09:45:47.193Z,0.10
2022-12-11T09:50:55.167Z,0.20
2022-12-11T09:56:12.020Z,0.10
2022-12-11T10:01:23.461Z,0.00
2022-12-11T10:06:34.478Z,-0.10
2022-12-11T10:12:00.285Z,-0.20
2022-12-11T10:17:11.191Z,-0.20
2022-12-11T10:27:26.873Z,-0.30
2022-12-11T10:32:38.249Z,0.00
2022-12-11T10:37:42.971Z,0.80
2022-12-11T10:42:54.355Z,1.60
2022-12-11T10:48:05.092Z,0.60
2022-12-11T10:53:22.226Z,0.40
2022-12-11T10:58:27.803Z,0.50
2022-12-11T11:03:31.385Z,0.70
2022-12-11T11:08:44.602Z,1.00
2022-12-11T11:13:48.004Z,0.90
2022-12-11T11:18:54.403Z,0.80
2022-12-11T11:23:59.171Z,0.70
2022-12-11T11:29:02.637Z,1.20
2022-12-11T11:34:10.856Z,1.20
2022-12-11T11:39:24.521Z,0.90
2022-12-11T11:44:32.779Z,1.30
2022-12-11T11:49:48.382Z,1.20
2022-12-11T11:55:00.920Z,0.60
2022-12-11T12:00:11.530Z,-0.70
2022-12-11T12:05:24.063Z,0.40
2022-12-11T12:10:34.203Z,0.00
2022-12-11T12:15:45.152Z,-0.40
2022-12-11T12:20:53.233Z,-0.60
2022-12-11T12:31:17.839Z,-0.70
2022-12-11T12:36:30.674Z,-0.60
2022-12-11T12:41:48.470Z,-0.70
2022-12-11T12:46:58.034Z,-0.50
2022-12-11T12:52:02.920Z,-0.30
2022-12-11T12:57:08.282Z,0.20
2022-12-11T13:02:18.626Z,0.20
2022-12-11T13:07:27.328Z,-0.20
2022-12-11T13:12:46.449Z,-2.30
2022-12-11T13:17:50.015Z,0.10
2022-12-11T13:22:58.026Z,0.40
2022-12-11T13:28:22.285Z,0.00
2022-12-11T13:33:27.171Z,0.20
2022-12-11T13:38:30.712Z,0.50
2022-12-11T13:43:35.703Z,-0.30
2022-12-11T13:48:40.880Z,-0.20
2022-12-11T13:53:44.261Z,-0.10
2022-12-11T13:58:49.663Z,-0.20
2022-12-11T14:03:56.310Z,-0.40
2022-12-11T14:09:02.208Z,-0.10
2022-12-11T14:14:16.005Z,-0.70
2022-12-11T14:19:22.305Z,-0.70
2022-12-11T14:24:25.842Z,-0.70
2022-12-11T14:29:32.767Z,-0.70
2022-12-11T14:34:38.805Z,-0.80
2022-12-11T14:39:47.281Z,-0.90
2022-12-11T14:44:57.382Z,-0.90
2022-12-11T14:50:07.143Z,3.50
2022-12-11T14:55:15.312Z,-0.80
2022-12-11T15:00:25.951Z,-1.00
2022-12-11T15:05:29.892Z,-0.90
2022-12-11T15:10:38.979Z,-0.80
2022-12-11T15:15:47.772Z,-0.90
2022-12-11T15:20:54.193Z,-0.90
2022-12-11T15:25:59.776Z,-0.80
2022-12-11T15:31:07.078Z,-0.50
2022-12-11T15:36:25.328Z,-1.00
2022-12-11T15:41:33.823Z,-1.00
2022-12-11T15:46:41.211Z,-1.00
2022-12-11T15:51:44.904Z,-1.00
2022-12-11T15:56:48.911Z,-0.90
2022-12-11T16:01:54.648Z,2.70
2022-12-11T16:06:59.590Z,-1.40
2022-12-11T16:12:04.450Z,-1.50
2022-12-11T16:17:11.541Z,-1.50
2022-12-11T16:22:18.331Z,-1.50
2022-12-11T16:27:24.120Z,-1.50
2022-12-11T16:32:30.777Z,-1.40
2022-12-11T16:37:35.577Z,-1.40
2022-12-11T16:42:39.455Z,-1.30
2022-12-11T16:47:44.738Z,-1.30
2022-12-11T16:52:49.553Z,-1.30
2022-12-11T16:57:53.074Z,-1.40
2022-12-11T17:02:58.592Z,-1.40
2022-12-11T17:08:02.162Z,-1.40
2022-12-11T17:13:05.587Z,-1.20
2022-12-11T17:18:10.866Z,-1.30
2022-12-11T17:23:14.231Z,-1.20
2022-12-11T17:28:18.702Z,-1.20
2022-12-11T17:33:24.041Z,-1.40
2022-12-11T17:38:28.307Z,-1.30
2022-12-11T17:43:32.048Z,-1.50
2022-12-11T17:48:36.784Z,-4.30
2022-12-11T17:53:40.650Z,-1.40
2022-12-11T17:58:43.740Z,-1.90
2022-12-11T18:03:48.944Z,-2.10
2022-12-11T18:08:52.270Z,-1.90
2022-12-11T18:13:55.652Z,-2.00
2022-12-11T18:19:00.308Z,-2.10
2022-12-11T18:24:03.814Z,-2.00
2022-12-11T18:29:07.478Z,-2.10
2022-12-11T18:34:12.192Z,-2.00
2022-12-11T18:39:15.342Z,-2.10
2022-12-11T18:44:22.642Z,-2.10
2022-12-11T18:49:27.382Z,-2.10
2022-12-11T18:54:30.545Z,-2.30
2022-12-11T18:59:33.695Z,-2.40
2022-12-11T19:04:39.430Z,-2.50
2022-12-11T19:09:47.912Z,-2.60
2022-12-11T19:14:51.531Z,-2.50
2022-12-11T19:19:56.248Z,-2.50
2022-12-11T19:24:59.406Z,-2.50
2022-12-11T19:30:02.587Z,-2.40
2022-12-11T19:35:08.247Z,-2.50
2022-12-11T19:40:12.173Z,-2.50
2022-12-11T19:45:15.366Z,-4.10
2022-12-11T19:50:20.082Z,1.40
2022-12-11T19:55:23.218Z,-2.20
2022-12-11T20:00:26.397Z,-2.30
2022-12-11T20:05:30.855Z,-2.40
2022-12-11T20:10:36.755Z,-2.30
2022-12-11T20:15:41.820Z,-2.30
2022-12-11T20:20:46.765Z,-2.30
2022-12-11T20:25:54.536Z,-2.30
2022-12-11T20:31:05.553Z,-2.30
2022-12-11T20:36:12.221Z,-2.20
2022-12-11T20:41:17.548Z,-2.40
2022-12-11T20:46:21.834Z,-2.50
2022-12-11T20:51:29.346Z,-2.60
2022-12-11T21:01:36.887Z,-2.70
2022-12-11T21:06:42.185Z,-2.70
2022-12-11T21:16:49.364Z,-2.70
2022-12-11T21:21:54.339Z,-2.70
2022-12-11T21:26:59.286Z,-2.80
2022-12-11T21:32:03.009Z,-2.70
2022-12-11T21:37:07.771Z,-2.70
2022-12-11T21:42:11.207Z,-2.60
2022-12-11T21:47:14.508Z,-2.60
2022-12-11T21:52:19.242Z,-2.60
2022-12-11T21:57:26.298Z,-2.60
2022-12-11T22:02:30.293Z,-2.50
2022-12-11T22:07:35.270Z,-2.50
2022-12-11T22:12:38.621Z,-2.50
2022-12-11T22:17:42.110Z,-2.50
2022-12-11T22:22:47.423Z,-2.50
2022-12-11T22:27:51.945Z,-2.40
2022-12-11T22:32:55.292Z,-2.40
2022-12-11T22:38:00.065Z,-2.30
2022-12-11T22:43:03.481Z,-2.10
2022-12-11T22:48:07.585Z,-2.30
2022-12-11T22:53:12.312Z,-2.30
2022-12-11T22:58:21.392Z,-2.30
2022-12-11T23:03:25.284Z,-2.20
2022-12-11T23:08:30.103Z,-2.20
2022-12-11T23:13:33.508Z,-2.20
2022-12-11T23:18:37.021Z,-2.30
2022-12-11T23:23:42.868Z,-2.30
2022-12-11T23:28:47.327Z,-2.30
2022-12-11T23:33:50.886Z,-2.30
2022-12-11T23:38:56.003Z,-2.30
2022-12-11T23:43:59.380Z,-2.20
2022-12-11T23:49:02.798Z,-2.30
2022-12-11T23:54:07.666Z,-2.40
2022-12-11T23:59:13.445Z,-2.40
